Station BLTM2 - 8574680 - Baltimore, MD Image indicating link to RSS feed of recent meteorological observations for station BLTM2


Conditions at BLTM2 as of
(3:48 am EDT)
0748 GMT on 09/02/2026:
     

Click on the graph icon in the table below to see a time series plot of the last five days of that observation.

5-day plot - Wind Direction Wind Direction (WDIR):ESE ( 110 deg true )
5-day plot - Wind Speed Wind Speed (WSPD): 4.1 kts
5-day plot - Wind Gust Wind Gust (GST): 5.1 kts
5-day plot - Water Temperature Water Temperature (WTMP): 82.6 °F
5-day plot - Wind Speed at 10 Meters Wind Speed at 10 meters (WSPD10M): 3.9 kts
5-day plot - Wind Speed at 20 Meters Wind Speed at 20 meters (WSPD20M): 3.9 kts
5-day plot -  Wind Speed, Wind Gust and Atmospheric Pressure Combined plot of Wind Speed, Gust, and Air Pressure
NOS Water Level Observation Network Water Level
Previous observations
TIME
(EDT)
5-day plot - Wind Direction
WDIR
 
5-day plot - Wind Speed
WSPD
kts
5-day plot - Wind Gust
GST
kts
5-day plot - Wave Height
WVHT
ft
5-day plot - Dominant Wave Period
DPD
sec
5-day plot - Average Wave Period
APD
sec
5-day plot - Mean Wave Direction
MWD
 
5-day plot - Atmospheric Pressure
PRES
in
5-day plot - Pressure Tendency
PTDY
in
5-day plot - Air Temperature
ATMP
°F
5-day plot - Water Temperature
WTMP
°F
5-day plot - Dew Point
DEWP
°F
5-day plot - Salinity
SAL
psu
5-day plot - Visibility
VIS
nmi
5-day plot - Tide (above MLLW)
TIDE
ft
2026-09-02 03:42 amENE 5.1 7.0------- 82.6----
2026-09-02 03:36 am E 5.1 7.0------- 82.6----
2026-09-02 03:30 am E 6.0 7.0------ 78.3 82.6----
2026-09-02 03:24 am E 6.0 7.0------ 78.4 82.6----
2026-09-02 03:18 am E 6.0 7.0------- 82.6----
2026-09-02 03:12 am E 5.1 8.0------- 82.6----
2026-09-02 03:06 am E 5.1 7.0------- 82.6----
2026-09-02 03:00 amESE 5.1 6.0------ 79.3 82.8----
2026-09-02 02:54 amESE 5.1 6.0------ 79.3 82.8----
2026-09-02 02:48 amESE 4.1 5.1------ 79.5 82.8----
2026-09-02 02:42 amESE 2.9 5.1------ 79.7 82.8----
2026-09-02 02:36 am E 2.9 5.1------ 79.7 82.8----
2026-09-02 02:30 am E 5.1 6.0------ 79.5 82.8----
2026-09-02 02:24 am E 2.9 5.1------ 79.7 82.8----
2026-09-02 02:18 am E 4.1 5.1------- 82.8----
2026-09-02 02:12 amESE 2.9 5.1------- 82.8----
2026-09-02 02:06 amESE 4.1 6.0------- 82.8----
2026-09-02 02:00 amESE 4.1 5.1------ 79.9 82.8----
2026-09-02 01:54 am E 5.1 8.0------ 80.1 82.8----
2026-09-02 01:48 am E 5.1 7.0------ 80.4 82.8----
2026-09-02 01:42 am E 5.1 8.0------ 80.4 82.8----
2026-09-02 01:36 amENE 6.0 7.0------ 80.8 82.8----
2026-09-02 01:30 amENE 7.0 11.1------ 80.8 82.8----
2026-09-02 01:24 am NE 9.9 13.0------ 81.0 82.8----
2026-09-02 01:18 am NE 9.9 13.0------- 82.8----
2026-09-02 01:12 am NE 8.0 12.0------- 82.8----
2026-09-02 01:06 am NE 8.9 11.1------- 82.8----
2026-09-02 01:00 amENE 7.0 11.1------ 80.8 82.8----
2026-09-02 12:54 amENE 8.0 11.1------ 80.8 82.8----
2026-09-02 12:48 am NE 8.0 9.9------ 81.1 82.8----
2026-09-02 12:42 amENE 6.0 7.0------ 81.1 82.8----
2026-09-02 12:36 amENE 2.9 4.1------ 80.8 82.8----
2026-09-02 12:30 amENE 1.9 2.9------ 80.8 82.8----
2026-09-02 12:24 amESE 1.9 5.1------ 80.8 82.8----
2026-09-02 12:18 amESE 5.1 6.0------- 82.8----
2026-09-02 12:12 am E 2.9 7.0------- 82.8----
2026-09-02 12:06 amENE 6.0 7.0------- 82.8----
2026-09-02 12:00 amENE 7.0 9.9------ 80.6 82.6----
2026-09-01 11:54 pm E 7.0 12.0------ 80.6 82.6----
2026-09-01 11:48 pm E 7.0 12.0------- 82.4----
2026-09-01 11:42 pmENE 8.9 13.0------- 82.4----
2026-09-01 11:36 pmENE 15.0 20.0------- 82.4----
2026-09-01 11:30 pm E 11.1 14.0------ 81.1 82.4----
2026-09-01 11:24 pm E 8.9 15.0------ 81.9 82.2----
2026-09-01 11:18 pmESE 8.9 11.1------- 82.2----
2026-09-01 11:12 pm E 9.9 13.0------- 82.2----
2026-09-01 11:06 pm E 8.0 9.9------- 82.2----
2026-09-01 11:00 pm E 5.1 8.9------ 86.5 82.2----
2026-09-01 10:54 pm N 4.1 9.9------ 87.8 82.2----
2026-09-01 10:48 pm NW 7.0 11.1------ 88.0 82.2----
2026-09-01 10:42 pm NW 4.1 7.0------ 88.0 82.2----
2026-09-01 10:36 pm NW 5.1 8.0------ 88.2 82.2----
2026-09-01 10:30 pm NW 4.1 9.9------ 88.3 82.4----
2026-09-01 10:24 pm NW 7.0 9.9------ 88.5 82.4----
2026-09-01 10:18 pm NW 8.0 11.1------- 82.6----
2026-09-01 10:12 pmNNW 5.1 8.0------- 82.6----
2026-09-01 10:06 pm NW 7.0 9.9------- 82.6----
2026-09-01 10:00 pm NW 6.0 12.0------ 89.1 82.6----
2026-09-01 09:54 pmWNW 8.0 13.0------ 89.2 82.6----
2026-09-01 09:48 pmWNW 5.1 14.0------ 89.4 82.6----
2026-09-01 09:42 pm NW 7.0 11.1------ 89.4 82.4----
2026-09-01 09:36 pmWNW 6.0 12.0------ 89.4 82.4----
2026-09-01 09:30 pmWNW 5.1 8.9------ 89.6 82.8----
2026-09-01 09:24 pmWNW 4.1 8.9------ 89.8 82.9----
2026-09-01 09:18 pmWNW 5.1 9.9------ 90.0 82.9----
2026-09-01 09:12 pmWNW 4.1 14.0------ 90.1 82.9----
2026-09-01 09:06 pm W 5.1 8.9------ 90.3 82.9----
2026-09-01 09:00 pmWNW 4.1 6.0------ 90.3 82.9----
2026-09-01 08:54 pm W 4.1 7.0------ 90.5 82.9----
2026-09-01 08:48 pm NW 1.0 5.1------ 90.7 82.9----
2026-09-01 08:42 pmWSW 1.9 8.0------ 91.0 82.9----
2026-09-01 08:36 pm W 4.1 8.9------ 91.0 82.8----
2026-09-01 08:30 pmWSW 5.1 8.9------ 91.2 82.8----
2026-09-01 08:24 pmWSW 5.1 8.0------ 91.2 82.8----
2026-09-01 08:18 pmWSW 5.1 8.0------- 82.6----
2026-09-01 08:12 pmWSW 5.1 7.0------- 82.4----
2026-09-01 08:06 pm SW 4.1 7.0------- 82.4----
2026-09-01 08:00 pm SW 5.1 7.0------ 90.1 82.4----
2026-09-01 07:54 pm SW 2.9 5.1------ 90.3 82.4----
2026-09-01 07:48 pm SW 2.9 4.1------- 82.4----
2026-09-01 07:42 pm SW 1.9 2.9------- 82.4----
2026-09-01 07:36 pm SW 1.9 2.9------- 82.4----
2026-09-01 07:30 pm SW 1.9 6.0------ 91.4 82.4----
2026-09-01 07:24 pm SW 2.9 5.1------ 91.9 82.6----
2026-09-01 07:18 pmWSW 4.1 5.1------- 82.6----
2026-09-01 07:12 pmWSW 2.9 6.0------- 82.6----
2026-09-01 07:06 pm SW 4.1 6.0------- 82.8----
2026-09-01 07:00 pmWSW 4.1 5.1------ 93.2 82.8----
2026-09-01 06:54 pmWSW 5.1 8.0------ 92.8 82.9----
2026-09-01 06:48 pm SW 2.9 5.1------ 92.8 82.6----
2026-09-01 06:42 pm SW 2.9 6.0------ 92.8 82.6----
2026-09-01 06:36 pmWSW 4.1 8.0------ 93.4 82.9----
2026-09-01 06:30 pm SW 5.1 8.0------ 93.2 82.9----
2026-09-01 06:24 pm SW 2.9 7.0------ 93.7 82.9----
2026-09-01 06:18 pm SW 4.1 8.0------- 83.1----
2026-09-01 06:12 pm SW 5.1 9.9------- 83.1----
2026-09-01 06:06 pmWSW 5.1 8.9------- 83.1----
2026-09-01 06:00 pmWSW 5.1 9.9------ 95.0 82.9----
2026-09-01 05:54 pm W 4.1 9.9------ 95.7 82.9----
2026-09-01 05:48 pm W 2.9 7.0------ 96.4 82.9----
2026-09-01 05:42 pm SW 5.1 9.9------ 95.9 82.9----
2026-09-01 05:36 pm W 2.9 8.0------ 96.8 82.9----
2026-09-01 05:30 pmWSW 6.0 8.9------ 96.1 83.1----
2026-09-01 05:24 pmWSW 4.1 8.9------ 96.3 82.9----
2026-09-01 05:18 pmWSW 5.1 8.0------- 83.1----
2026-09-01 05:12 pmWSW 5.1 12.0------- 83.1----
2026-09-01 05:06 pm W 5.1 11.1------- 83.1----
2026-09-01 05:00 pm SW 4.1 8.0------ 96.8 83.1----
2026-09-01 04:54 pmWNW 5.1 12.0------ 95.7 83.1----
2026-09-01 04:48 pm SW 6.0 8.9------ 95.9 83.3----
2026-09-01 04:42 pm W 4.1 12.0------ 95.2 83.5----
2026-09-01 04:36 pmWSW 6.0 11.1------ 94.8 83.3----
2026-09-01 04:30 pm W 5.1 8.0------ 95.0 83.3----
2026-09-01 04:24 pmWSW 7.0 11.1------ 94.8 83.3----
2026-09-01 04:18 pmWSW 4.1 8.9------- 82.9----
2026-09-01 04:12 pm W 2.9 8.0------- 82.9----
2026-09-01 04:06 pmWSW 4.1 8.9------- 82.9----
2026-09-01 04:00 pm W 5.1 8.0------ 96.6 83.1----
2026-09-01 03:54 pm NW 5.1 8.9------ 96.3 83.1----
2026-09-01 03:48 pmNNW 4.1 8.9------ 95.4 83.1----
2026-09-01 03:42 pmNNW 5.1 9.9------ 95.0 83.1----
2026-09-01 03:36 pmNNW 5.1 12.0------ 95.2 83.1----
2026-09-01 03:30 pmNNW 5.1 11.1------ 95.2 83.1----
2026-09-01 03:24 pmWNW 5.1 11.1------ 94.5 82.9----
2026-09-01 03:18 pm N 7.0 13.0------- 82.8----
2026-09-01 03:12 pm NW 6.0 15.0------- 82.6----
2026-09-01 03:06 pm NW 11.1 14.0------- 82.6----
2026-09-01 03:00 pm NW 7.0 13.0------ 94.5 82.9----
2026-09-01 02:54 pm NW 5.1 13.0------ 94.1 82.9----
2026-09-01 02:48 pmNNW 11.1 15.9------ 94.3 82.9----
2026-09-01 02:42 pm NW 6.0 9.9------ 94.6 83.3----
2026-09-01 02:36 pm NW 6.0 12.0------ 94.6 83.7----
2026-09-01 02:30 pm NW 5.1 8.9------ 94.5 83.7----
2026-09-01 02:24 pm N 4.1 8.9------ 93.4 83.7----
2026-09-01 02:18 pmNNW 4.1 8.9------- 83.5----
2026-09-01 02:12 pmNNW 7.0 11.1------- 83.5----
2026-09-01 02:06 pmNNW 5.1 11.1------- 83.3----
2026-09-01 02:00 pmNNW 8.0 12.0------ 92.5 83.3----
2026-09-01 01:54 pm NW 8.0 12.0------ 92.3 83.1----
2026-09-01 01:48 pmWNW 6.0 9.9------ 92.3 83.1----
2026-09-01 01:42 pm NW 5.1 7.0------ 92.3 82.9----
2026-09-01 01:36 pmWSW 1.0 7.0------ 93.0 82.9----
2026-09-01 01:30 pmWNW 4.1 7.0------ 90.9 82.9----
2026-09-01 01:24 pm NW 5.1 8.0------ 90.3 82.9----
2026-09-01 01:18 pmWNW 7.0 9.9------- 82.8----
2026-09-01 01:12 pm NW 5.1 8.9------- 82.8----
2026-09-01 01:06 pm NW 4.1 8.9------- 82.6----
2026-09-01 01:00 pmWNW 7.0 14.0------ 89.6 82.4----
2026-09-01 12:54 pmWNW 6.0 11.1------ 90.5 82.2----
2026-09-01 12:48 pmNNW 6.0 11.1------- 82.0----
2026-09-01 12:42 pmNNW 8.0 12.0------- 81.9----
2026-09-01 12:36 pm NW 5.1 9.9------- 81.9----
2026-09-01 12:30 pm NW 2.9 8.0------ 91.4 81.9----
2026-09-01 12:24 pm NW 6.0 8.0------ 91.4 81.7----
2026-09-01 12:18 pm NW 5.1 12.0------- 81.7----
2026-09-01 12:12 pm NW 8.0 13.0------- 81.7----
2026-09-01 12:06 pmNNW 5.1 11.1------- 81.5----
2026-09-01 12:00 pm NW 6.0 8.9------- 81.5----
2026-09-01 11:54 amWSW 2.9 6.0------- 81.5----
2026-09-01 11:48 amWNW 6.0 8.9------- 81.5----
2026-09-01 11:42 am NW 4.1 6.0------- 81.5----
2026-09-01 11:36 am W 4.1 8.9------- 81.5----
2026-09-01 11:00 am W 4.1 9.9------ 89.2 81.5----
2026-09-01 10:54 am SW 5.1 8.0------ 89.2 81.5----
2026-09-01 10:48 amWSW 6.0 8.0------- 81.5----
2026-09-01 10:42 amWSW 6.0 8.9------- 81.5----
2026-09-01 10:36 amWSW 5.1 8.0------- 81.5----
2026-09-01 10:30 amWSW 5.1 8.0------ 87.4 81.5----
2026-09-01 10:24 amWSW 4.1 6.0------ 87.4 81.5----
2026-09-01 10:18 amWSW 5.1 8.0------- 81.5----
2026-09-01 10:12 amWSW 6.0 8.9------- 81.3----
2026-09-01 10:06 amWSW 4.1 6.0------- 81.3----
2026-09-01 10:00 amWSW 5.1 8.9------ 85.8 81.3----
2026-09-01 09:54 am SW 4.1 6.0------ 85.1 81.3----
2026-09-01 09:48 am SW 4.1 6.0------ 85.3 81.3----
2026-09-01 09:42 amWSW 2.9 7.0------ 86.0 81.3----
2026-09-01 09:36 amWSW 7.0 8.9------ 85.5 81.3----
2026-09-01 09:30 amWSW 6.0 8.0------ 85.3 81.3----
2026-09-01 09:24 amWSW 4.1 7.0------ 84.7 81.3----
2026-09-01 09:18 amWSW 5.1 7.0------- 81.3----
2026-09-01 09:12 amWSW 5.1 7.0------- 81.3----
2026-09-01 09:06 amWSW 5.1 8.0------- 81.3----
2026-09-01 09:00 amWSW 5.1 8.0------ 84.7 81.3----
2026-09-01 08:54 amWSW 2.9 7.0------ 84.6 81.3----
2026-09-01 08:48 amWSW 5.1 7.0------- 81.3----
2026-09-01 08:42 amWSW 2.9 5.1------- 81.3----
2026-09-01 08:36 amWSW 2.9 5.1------- 81.3----
2026-09-01 08:30 am SW 1.9 4.1------ 81.9 81.3----
2026-09-01 08:24 amWSW 1.9 4.1------ 80.6 81.3----
2026-09-01 08:18 am SW 1.9 4.1------- 81.3----
2026-09-01 08:12 am S 1.9 2.9------- 81.3----
2026-09-01 08:06 amSSW 1.9 2.9------- 81.3----
2026-09-01 08:00 amSSW 1.9 2.9------ 79.2 81.3----
2026-09-01 07:54 amSSW 1.9 2.9------ 78.8 81.3----
2026-09-01 07:48 amSSW 1.0 1.9------ 78.4 81.3----
2026-09-01 07:42 am SW 1.9 5.1------ 78.1 81.3----
2026-09-01 07:36 amSSW 1.9 4.1------ 77.9 81.3----
2026-09-01 07:30 amSSW 2.9 4.1------ 77.7 81.3----
2026-09-01 07:24 amSSW 1.9 4.1------ 77.5 81.3----
2026-09-01 07:18 amSSW 1.9 4.1------- 81.3----
2026-09-01 07:12 amSSW 1.9 2.9------- 81.3----
2026-09-01 07:06 amSSW 1.9 2.9------- 81.3----
2026-09-01 07:00 am SW 1.9 4.1------ 77.4 81.3----
2026-09-01 06:54 am SW 1.9 4.1------ 77.2 81.3----
2026-09-01 06:48 am SW 1.9 2.9------ 77.0 81.3----
2026-09-01 06:42 am SW 1.0 2.9------ 76.8 81.3----
2026-09-01 06:36 am SW 1.9 2.9------ 76.8 81.3----
2026-09-01 06:30 am SW 1.9 2.9------ 76.8 81.3----
2026-09-01 06:24 am SW 1.9 2.9------ 76.6 81.3----
2026-09-01 06:18 am SW 1.9 4.1------- 81.3----
2026-09-01 06:12 am SW 1.9 2.9------- 81.3----
2026-09-01 06:06 am SW 1.9 2.9------- 81.3----
2026-09-01 06:00 amSSW 1.9 2.9------ 76.3 81.3----
2026-09-01 05:54 am S 1.0 1.9------ 76.3 81.5----
2026-09-01 05:48 amSSW 1.9 1.9------ 76.6 81.5----
2026-09-01 05:42 amSSW 1.9 1.9------ 76.8 81.5----
2026-09-01 05:36 am- 0.0 1.0------ 77.0 81.5----
2026-09-01 05:30 amSSW 1.0 1.9------ 77.0 81.5----
2026-09-01 05:24 amSSW 1.9 1.9------ 77.2 81.5----
2026-09-01 05:18 am SW 1.9 1.9------- 81.5----
2026-09-01 05:12 am SW 1.0 2.9------- 81.5----
2026-09-01 05:06 am SW 1.0 1.9------- 81.5----
2026-09-01 05:00 am SW 1.9 2.9------ 77.0 81.5----
2026-09-01 04:54 am SW 1.0 1.9------ 77.0 81.5----